ISR50 LLER-LLBG
Flight info
| Callsign | ISR50 |
|---|---|
| Flight time | 0h 33m |
| Altitude | 23000 |
| Route | NURIT J10 AMMIT |
| Aircraft | A320/M-SDE3FGHIRWY/LB1 |
Departure
| Time | 2026-04-22 11:26 |
|---|---|
| Airport | Ramon International Airport (LLER) |
Arrival
| Time | 2026-04-22 11:59 |
|---|---|
| Airport | Ben Gurion International Airport (LLBG) |
| Time | Latitude | Longitude | Altitude | Speed | Heading |
|---|---|---|---|---|---|
| 2026-04-22 10:59 | 29.72454 | 35.00753 | 252 ft | 0 kts | 284° |
| 2026-04-22 11:07 | 29.72500 | 35.00767 | 253 ft | 0 kts | 284° |
| 2026-04-22 11:07 | 29.72529 | 35.00776 | 252 ft | 0 kts | 284° |
| 2026-04-22 11:17 | 29.72529 | 35.00779 | 252 ft | 2 kts | 284° |
| 2026-04-22 11:17 | 29.72525 | 35.00797 | 252 ft | 2 kts | 283° |
| 2026-04-22 11:17 | 29.72522 | 35.00816 | 252 ft | 2 kts | 280° |
| 2026-04-22 11:18 | 29.72519 | 35.00835 | 252 ft | 2 kts | 276° |
| 2026-04-22 11:18 | 29.72518 | 35.00853 | 252 ft | 2 kts | 269° |
| 2026-04-22 11:18 | 29.72519 | 35.00872 | 252 ft | 2 kts | 254° |
| 2026-04-22 11:18 | 29.72525 | 35.00889 | 252 ft | 2 kts | 215° |
| 2026-04-22 11:19 | 29.72536 | 35.00896 | 252 ft | 1 kts | 195° |
| 2026-04-22 11:19 | 29.72538 | 35.00897 | 252 ft | 0 kts | 195° |
| 2026-04-22 11:21 | 29.72537 | 35.00897 | 252 ft | 0 kts | 193° |
| 2026-04-22 11:21 | 29.72535 | 35.00896 | 252 ft | 2 kts | 194° |
| 2026-04-22 11:21 | 29.72515 | 35.00890 | 252 ft | 4 kts | 194° |
| 2026-04-22 11:22 | 29.72478 | 35.00879 | 252 ft | 7 kts | 194° |
| 2026-04-22 11:22 | 29.72434 | 35.00894 | 252 ft | 8 kts | 129° |
| 2026-04-22 11:22 | 29.72416 | 35.00955 | 253 ft | 8 kts | 102° |
| 2026-04-22 11:22 | 29.72400 | 35.01021 | 255 ft | 8 kts | 108° |
| 2026-04-22 11:23 | 29.72368 | 35.01073 | 257 ft | 8 kts | 158° |
| 2026-04-22 11:23 | 29.72310 | 35.01068 | 257 ft | 10 kts | 192° |
| 2026-04-22 11:23 | 29.72240 | 35.01064 | 258 ft | 10 kts | 150° |
| 2026-04-22 11:23 | 29.72220 | 35.01115 | 263 ft | 4 kts | 105° |
| 2026-04-22 11:24 | 29.72214 | 35.01140 | 267 ft | 4 kts | 105° |
| 2026-04-22 11:24 | 29.72199 | 35.01204 | 278 ft | 8 kts | 106° |
| 2026-04-22 11:24 | 29.72191 | 35.01255 | 280 ft | 6 kts | 73° |
| 2026-04-22 11:24 | 29.72217 | 35.01268 | 280 ft | 0 kts | 12° |
| 2026-04-22 11:25 | 29.72498 | 35.01346 | 278 ft | 76 kts | 14° |
| 2026-04-22 11:25 | 29.73198 | 35.01541 | 281 ft | 129 kts | 14° |
| 2026-04-22 11:26 | 29.74157 | 35.01806 | 600 ft | 144 kts | 13° |
| 2026-04-22 11:26 | 29.75152 | 35.02045 | 1066 ft | 151 kts | 6° |
| 2026-04-22 11:26 | 29.76223 | 35.02193 | 1562 ft | 157 kts | 6° |
| 2026-04-22 11:26 | 29.77320 | 35.02347 | 2040 ft | 165 kts | 7° |
| 2026-04-22 11:27 | 29.78528 | 35.02523 | 2246 ft | 187 kts | 6° |
| 2026-04-22 11:27 | 29.79908 | 35.02714 | 2400 ft | 212 kts | 7° |
| 2026-04-22 11:27 | 29.81456 | 35.02919 | 2597 ft | 237 kts | 7° |
| 2026-04-22 11:27 | 29.83164 | 35.03172 | 3100 ft | 254 kts | 7° |
| 2026-04-22 11:28 | 29.84944 | 35.03416 | 3930 ft | 259 kts | 7° |
| 2026-04-22 11:28 | 29.86748 | 35.03673 | 4808 ft | 264 kts | 8° |
| 2026-04-22 11:28 | 29.88588 | 35.03932 | 5633 ft | 269 kts | 8° |
| 2026-04-22 11:28 | 29.90495 | 35.04197 | 6277 ft | 283 kts | 8° |
| 2026-04-22 11:29 | 29.92477 | 35.04476 | 6960 ft | 291 kts | 8° |
| 2026-04-22 11:29 | 29.94512 | 35.04766 | 7726 ft | 295 kts | 8° |
| 2026-04-22 11:29 | 29.96540 | 35.05061 | 8646 ft | 294 kts | 7° |
| 2026-04-22 11:29 | 29.98559 | 35.05360 | 9587 ft | 291 kts | 7° |
| 2026-04-22 11:30 | 30.00574 | 35.05665 | 10344 ft | 296 kts | 7° |
| 2026-04-22 11:30 | 30.02684 | 35.05980 | 10652 ft | 316 kts | 6° |
| 2026-04-22 11:30 | 30.04927 | 35.06300 | 10953 ft | 334 kts | 6° |
| 2026-04-22 11:30 | 30.07284 | 35.06628 | 11299 ft | 349 kts | 5° |
| 2026-04-22 11:31 | 30.09738 | 35.06985 | 11676 ft | 362 kts | 7° |
| 2026-04-22 11:31 | 30.12263 | 35.07509 | 12086 ft | 374 kts | 10° |
| 2026-04-22 11:31 | 30.14811 | 35.08117 | 12857 ft | 373 kts | 9° |
| 2026-04-22 11:31 | 30.17323 | 35.08704 | 13557 ft | 375 kts | 9° |
| 2026-04-22 11:32 | 30.19892 | 35.09301 | 14177 ft | 378 kts | 9° |
| 2026-04-22 11:32 | 30.22487 | 35.09870 | 14722 ft | 381 kts | 8° |
| 2026-04-22 11:32 | 30.25106 | 35.10390 | 15284 ft | 383 kts | 7° |
| 2026-04-22 11:32 | 30.27755 | 35.10867 | 15767 ft | 389 kts | 6° |
| 2026-04-22 11:33 | 30.30467 | 35.11344 | 16105 ft | 399 kts | 6° |
| 2026-04-22 11:33 | 30.33220 | 35.11821 | 16711 ft | 400 kts | 6° |
| 2026-04-22 11:33 | 30.35964 | 35.12309 | 17478 ft | 398 kts | 6° |
| 2026-04-22 11:33 | 30.38711 | 35.12826 | 17981 ft | 404 kts | 7° |
| 2026-04-22 11:34 | 30.41505 | 35.13369 | 18459 ft | 410 kts | 7° |
| 2026-04-22 11:34 | 30.44332 | 35.13925 | 18965 ft | 414 kts | 7° |
| 2026-04-22 11:34 | 30.47187 | 35.14488 | 19500 ft | 417 kts | 6° |
| 2026-04-22 11:34 | 30.50049 | 35.15052 | 20059 ft | 419 kts | 6° |
| 2026-04-22 11:35 | 30.52936 | 35.15618 | 20587 ft | 421 kts | 6° |
| 2026-04-22 11:35 | 30.55820 | 35.16316 | 21074 ft | 427 kts | 13° |
| 2026-04-22 11:35 | 30.58622 | 35.17516 | 21541 ft | 432 kts | 20° |
| 2026-04-22 11:35 | 30.61397 | 35.18880 | 21995 ft | 435 kts | 20° |
| 2026-04-22 11:36 | 30.64189 | 35.20252 | 22438 ft | 437 kts | 20° |
| 2026-04-22 11:36 | 30.66631 | 35.21452 | 22810 ft | 440 kts | 20° |
| 2026-04-22 11:36 | 30.69455 | 35.22841 | 22985 ft | 443 kts | 20° |
| 2026-04-22 11:36 | 30.72328 | 35.24253 | 23015 ft | 454 kts | 20° |
| 2026-04-22 11:37 | 30.75274 | 35.25700 | 23017 ft | 462 kts | 20° |
| 2026-04-22 11:37 | 30.78244 | 35.27163 | 23021 ft | 465 kts | 20° |
| 2026-04-22 11:37 | 30.81224 | 35.28633 | 23023 ft | 466 kts | 20° |
| 2026-04-22 11:37 | 30.84205 | 35.30105 | 23020 ft | 466 kts | 20° |
| 2026-04-22 11:38 | 30.87193 | 35.31579 | 23019 ft | 466 kts | 20° |
| 2026-04-22 11:38 | 30.90176 | 35.33054 | 23028 ft | 466 kts | 20° |
| 2026-04-22 11:38 | 30.96198 | 35.35323 | 21939 ft | 450 kts | 6° |
| 2026-04-22 11:39 | 30.99314 | 35.35665 | 21101 ft | 447 kts | 1° |
| 2026-04-22 11:39 | 31.02385 | 35.35941 | 20453 ft | 440 kts | 1° |
| 2026-04-22 11:39 | 31.05418 | 35.36238 | 19799 ft | 435 kts | 2° |
| 2026-04-22 11:39 | 31.08423 | 35.36553 | 19144 ft | 431 kts | 2° |
| 2026-04-22 11:40 | 31.11395 | 35.36869 | 18538 ft | 427 kts | 2° |
| 2026-04-22 11:40 | 31.14348 | 35.37184 | 17865 ft | 424 kts | 3° |
| 2026-04-22 11:40 | 31.17271 | 35.37494 | 17285 ft | 419 kts | 3° |
| 2026-04-22 11:40 | 31.20128 | 35.37796 | 16690 ft | 403 kts | 3° |
| 2026-04-22 11:41 | 31.22850 | 35.38087 | 16152 ft | 384 kts | 3° |
| 2026-04-22 11:41 | 31.25455 | 35.38366 | 15607 ft | 371 kts | 3° |
| 2026-04-22 11:41 | 31.28038 | 35.38637 | 15064 ft | 373 kts | 3° |
| 2026-04-22 11:41 | 31.30613 | 35.38904 | 14497 ft | 370 kts | 3° |
| 2026-04-22 11:42 | 31.33168 | 35.39189 | 13942 ft | 367 kts | 6° |
| 2026-04-22 11:42 | 31.35670 | 35.39719 | 13305 ft | 364 kts | 9° |
| 2026-04-22 11:42 | 31.38154 | 35.40274 | 12711 ft | 361 kts | 9° |
| 2026-04-22 11:42 | 31.40615 | 35.40825 | 12120 ft | 358 kts | 9° |
| 2026-04-22 11:43 | 31.43055 | 35.41370 | 11524 ft | 355 kts | 9° |
| 2026-04-22 11:43 | 31.45467 | 35.41905 | 10930 ft | 350 kts | 9° |
| 2026-04-22 11:43 | 31.47793 | 35.42423 | 10669 ft | 327 kts | 9° |
| 2026-04-22 11:43 | 31.49956 | 35.42906 | 10461 ft | 307 kts | 9° |
| 2026-04-22 11:44 | 31.52022 | 35.43367 | 10221 ft | 300 kts | 9° |
| 2026-04-22 11:44 | 31.54062 | 35.43821 | 10064 ft | 298 kts | 9° |
| 2026-04-22 11:44 | 31.56094 | 35.44272 | 10026 ft | 297 kts | 9° |
| 2026-04-22 11:44 | 31.58127 | 35.44726 | 10030 ft | 298 kts | 9° |
| 2026-04-22 11:45 | 31.60163 | 35.45180 | 10034 ft | 298 kts | 9° |
| 2026-04-22 11:45 | 31.62200 | 35.45630 | 10042 ft | 298 kts | 9° |
| 2026-04-22 11:45 | 31.64234 | 35.46092 | 10034 ft | 298 kts | 9° |
| 2026-04-22 11:45 | 31.66266 | 35.46570 | 10041 ft | 298 kts | 9° |
| 2026-04-22 11:46 | 31.68299 | 35.47058 | 10032 ft | 298 kts | 10° |
| 2026-04-22 11:46 | 31.70331 | 35.47550 | 10035 ft | 298 kts | 10° |
| 2026-04-22 11:46 | 31.72369 | 35.47959 | 10040 ft | 296 kts | 358° |
| 2026-04-22 11:46 | 31.74322 | 35.47472 | 10030 ft | 291 kts | 333° |
| 2026-04-22 11:47 | 31.76041 | 35.46197 | 10041 ft | 288 kts | 319° |
| 2026-04-22 11:47 | 31.77599 | 35.44759 | 10028 ft | 289 kts | 320° |
| 2026-04-22 11:47 | 31.79180 | 35.43308 | 10024 ft | 288 kts | 320° |
| 2026-04-22 11:47 | 31.80759 | 35.41858 | 10023 ft | 288 kts | 320° |
| 2026-04-22 11:48 | 31.82340 | 35.40405 | 10021 ft | 288 kts | 320° |
| 2026-04-22 11:48 | 31.83917 | 35.38955 | 10027 ft | 288 kts | 320° |
| 2026-04-22 11:48 | 31.85493 | 35.37502 | 10030 ft | 288 kts | 320° |
| 2026-04-22 11:48 | 31.87070 | 35.36043 | 9892 ft | 288 kts | 320° |
| 2026-04-22 11:49 | 31.88643 | 35.34586 | 9770 ft | 287 kts | 320° |
| 2026-04-22 11:49 | 31.90212 | 35.33137 | 9636 ft | 286 kts | 320° |
| 2026-04-22 11:49 | 31.91777 | 35.31690 | 9345 ft | 284 kts | 320° |
| 2026-04-22 11:49 | 31.93299 | 35.30284 | 9010 ft | 272 kts | 320° |
| 2026-04-22 11:50 | 31.94758 | 35.28934 | 8678 ft | 261 kts | 320° |
| 2026-04-22 11:50 | 31.96156 | 35.27637 | 8351 ft | 252 kts | 320° |
| 2026-04-22 11:50 | 31.97517 | 35.26374 | 8026 ft | 247 kts | 320° |
| 2026-04-22 11:50 | 31.98857 | 35.25129 | 7708 ft | 245 kts | 320° |
| 2026-04-22 11:51 | 32.00190 | 35.23892 | 7388 ft | 244 kts | 319° |
| 2026-04-22 11:51 | 32.01517 | 35.22660 | 7074 ft | 243 kts | 319° |
| 2026-04-22 11:51 | 32.02871 | 35.21400 | 6769 ft | 260 kts | 320° |
| 2026-04-22 11:51 | 32.04304 | 35.20064 | 6638 ft | 265 kts | 321° |
| 2026-04-22 11:52 | 32.05756 | 35.18712 | 6493 ft | 266 kts | 321° |
| 2026-04-22 11:52 | 32.07207 | 35.17363 | 6184 ft | 265 kts | 321° |
| 2026-04-22 11:52 | 32.08645 | 35.16022 | 5906 ft | 264 kts | 320° |
| 2026-04-22 11:52 | 32.10047 | 35.14688 | 5659 ft | 251 kts | 320° |
| 2026-04-22 11:53 | 32.11374 | 35.13413 | 5279 ft | 244 kts | 320° |
| 2026-04-22 11:53 | 32.12653 | 35.12118 | 4797 ft | 241 kts | 312° |
| 2026-04-22 11:53 | 32.13709 | 35.10614 | 4378 ft | 236 kts | 309° |
| 2026-04-22 11:53 | 32.14734 | 35.09126 | 4126 ft | 231 kts | 309° |
| 2026-04-22 11:54 | 32.15752 | 35.07650 | 4058 ft | 232 kts | 309° |
| 2026-04-22 11:54 | 32.16770 | 35.06174 | 3952 ft | 231 kts | 309° |
| 2026-04-22 11:54 | 32.17679 | 35.04620 | 3854 ft | 230 kts | 290° |
| 2026-04-22 11:54 | 32.17774 | 35.02778 | 3714 ft | 225 kts | 254° |
| 2026-04-22 11:55 | 32.17030 | 35.01213 | 3456 ft | 216 kts | 236° |
| 2026-04-22 11:55 | 32.16177 | 34.99808 | 3219 ft | 205 kts | 236° |
| 2026-04-22 11:55 | 32.15176 | 34.98675 | 3041 ft | 197 kts | 212° |
| 2026-04-22 11:55 | 32.14008 | 34.97888 | 2822 ft | 189 kts | 208° |
| 2026-04-22 11:56 | 32.12876 | 34.97171 | 2593 ft | 182 kts | 208° |
| 2026-04-22 11:56 | 32.11759 | 34.96455 | 2364 ft | 182 kts | 209° |
| 2026-04-22 11:56 | 32.10668 | 34.95751 | 2118 ft | 174 kts | 210° |
| 2026-04-22 11:56 | 32.09653 | 34.95095 | 1907 ft | 160 kts | 210° |
| 2026-04-22 11:57 | 32.08699 | 34.94478 | 1688 ft | 155 kts | 212° |
| 2026-04-22 11:57 | 32.07751 | 34.93863 | 1462 ft | 155 kts | 212° |
| 2026-04-22 11:57 | 32.07130 | 34.93463 | 1332 ft | 154 kts | 213° |
| 2026-04-22 11:57 | 32.06180 | 34.92848 | 1130 ft | 155 kts | 211° |
| 2026-04-22 11:58 | 32.05248 | 34.92233 | 949 ft | 154 kts | 213° |
| 2026-04-22 11:58 | 32.04311 | 34.91640 | 748 ft | 152 kts | 211° |
| 2026-04-22 11:58 | 32.03384 | 34.91039 | 519 ft | 152 kts | 213° |
| 2026-04-22 11:58 | 32.02457 | 34.90442 | 334 ft | 151 kts | 214° |
| 2026-04-22 11:59 | 32.01540 | 34.89847 | 135 ft | 148 kts | 213° |
| 2026-04-22 11:59 | 32.00743 | 34.89332 | 120 ft | 114 kts | 210° |
| 2026-04-22 11:59 | 32.00189 | 34.88971 | 117 ft | 66 kts | 207° |
| 2026-04-22 11:59 | 31.99914 | 34.88760 | 118 ft | 33 kts | 234° |
| 2026-04-22 12:00 | 31.99853 | 34.88605 | 117 ft | 15 kts | 273° |
| 2026-04-22 12:00 | 31.99867 | 34.88572 | 118 ft | 0 kts | 306° |